This is the latest recevied weather packets stored in our database for station/object DC1MAK-13. If no packets are shown the sender has not sent any weather packets the latest 10 day(s).
| Time | Temp. | Humidity | Pressure | Rain* | Wind** | Luminosity | Snow |
|---|---|---|---|---|---|---|---|
| 1777489659 | 12.22° C | 36% | 991.4 hPa | - | - | - | - |
| 1777489352 | 12.22° C | 36% | 991.4 hPa | - | - | - | - |
| 1777488745 | 12.78° C | 34% | 991.2 hPa | - | - | - | - |
| 1777487839 | 13.33° C | 34% | 991 hPa | - | - | - | - |
| 1777486923 | 13.89° C | 33% | 990.9 hPa | - | - | - | - |
| 1777486319 | 14.44° C | 33% | 990.8 hPa | - | - | - | - |
| 1777485709 | 15° C | 32% | 990.6 hPa | - | - | - | - |
| 1777485405 | 15° C | 32% | 990.6 hPa | - | - | - | - |
| 1777484799 | 15.56° C | 31% | 990.5 hPa | - | - | - | - |
| 1777484191 | 16.11° C | 30% | 990.3 hPa | - | - | - | - |
| 1777482979 | 23.33° C | 21% | 990.3 hPa | - | - | - | - |
| 1777480244 | 25° C | 22% | 990.1 hPa | - | - | - | - |
| 1777472659 | 18.89° C | 30% | 989.8 hPa | - | - | - | - |
| 1777472350 | 19.44° C | 28% | 989.8 hPa | - | - | - | - |
| 1777472047 | 18.89° C | 30% | 989.8 hPa | - | - | - | - |
| 1777471743 | 19.44° C | 30% | 989.8 hPa | - | - | - | - |
| 1777471139 | 18.89° C | 31% | 989.8 hPa | - | - | - | - |
| 1777470832 | 18.89° C | 31% | 989.9 hPa | - | - | - | - |
| 1777470529 | 18.33° C | 32% | 989.9 hPa | - | - | - | - |
| 1777469619 | 18.33° C | 31% | 989.9 hPa | - | - | - | - |
| 1777469319 | 18.33° C | 31% | 989.8 hPa | - | - | - | - |
| 1777469011 | 18.33° C | 34% | 989.8 hPa | - | - | - | - |
| 1777468707 | 18.33° C | 32% | 989.9 hPa | - | - | - | - |
| 1777468404 | 18.33° C | 32% | 989.9 hPa | - | - | - | - |
| 1777467799 | 18.33° C | 33% | 989.8 hPa | - | - | - | - |
* Rain since midnight (hover to see other rain measurements)
** Current wind speed in m/s (hover to see current wind gust speed)